Time;durP1;ratioP1;P1;durP2;ratioP2;P2;SDS_P1;SDS_P2;PMS_P1;PMS_P2;Temp;Humidity;BMP_temperature;BMP_pressure;BME280_temperature;BME280_humidity;BME280_pressure;Samples;Min_cycle;Max_cycle;Signal;HPM_P1;HPM_P2
2021/04/04 00:02:13;;;;;;;4.32;2.90;;;22.40;72.00;;;;;;5028586;28;20024;-68
2021/04/04 00:04:40;;;;;;;4.30;2.25;;;22.30;72.20;;;;;;5025389;28;20615;-66
2021/04/04 00:07:07;;;;;;;2.55;1.73;;;22.40;72.40;;;;;;5026298;28;20111;-66
2021/04/04 00:09:33;;;;;;;3.35;2.03;;;22.40;72.50;;;;;;5022965;28;20033;-66
2021/04/04 00:12:00;;;;;;;5.13;2.05;;;22.40;72.60;;;;;;5026968;28;20537;-68
2021/04/04 00:14:26;;;;;;;2.15;1.60;;;22.40;72.80;;;;;;5028679;28;20037;-66
2021/04/04 00:16:53;;;;;;;3.70;1.55;;;22.40;72.90;;;;;;5025296;28;20038;-66
2021/04/04 00:19:19;;;;;;;2.90;1.60;;;22.40;72.90;;;;;;5025533;28;20018;-67
2021/04/04 00:21:46;;;;;;;5.72;1.60;;;22.40;73.00;;;;;;5031267;28;20378;-65
2021/04/04 00:24:12;;;;;;;2.80;1.23;;;22.40;73.00;;;;;;5025311;28;20049;-67
2021/04/04 00:26:39;;;;;;;3.83;1.92;;;22.40;73.10;;;;;;5030067;28;20117;-67
2021/04/04 00:29:07;;;;;;;5.13;2.78;;;22.40;73.20;;;;;;5024330;28;20033;-68
2021/04/04 00:31:35;;;;;;;2.50;1.70;;;22.40;73.20;;;;;;5025422;28;20113;-66
2021/04/04 00:34:02;;;;;;;2.25;2.00;;;22.40;73.40;;;;;;5023704;28;20116;-68
2021/04/04 00:36:29;;;;;;;3.00;1.88;;;22.40;73.40;;;;;;5027431;28;20045;-65
2021/04/04 00:38:55;;;;;;;4.22;3.22;;;22.40;73.50;;;;;;5022746;28;20105;-65
2021/04/04 00:41:22;;;;;;;4.30;2.72;;;22.40;73.60;;;;;;5027261;28;20407;-66
2021/04/04 00:43:48;;;;;;;5.32;3.05;;;22.40;73.70;;;;;;5028465;28;20033;-67
2021/04/04 00:46:15;;;;;;;4.03;2.33;;;22.40;73.90;;;;;;5022127;28;20125;-66
2021/04/04 00:48:41;;;;;;;4.20;1.98;;;22.40;74.00;;;;;;5023125;28;20025;-67
2021/04/04 00:51:08;;;;;;;3.28;3.00;;;22.40;74.10;;;;;;5021935;28;20021;-66
2021/04/04 00:53:34;;;;;;;4.35;2.08;;;22.40;74.20;;;;;;5024631;28;20042;-67
2021/04/04 00:56:01;;;;;;;3.70;2.25;;;22.40;74.30;;;;;;5026841;28;20029;-67
2021/04/04 00:58:28;;;;;;;3.20;1.77;;;22.40;74.40;;;;;;5028344;28;20028;-67
2021/04/04 01:00:54;;;;;;;1.70;1.40;;;22.40;74.50;;;;;;5026467;28;20022;-66
2021/04/04 01:03:21;;;;;;;1.20;1.10;;;22.40;74.60;;;;;;5022996;28;20037;-69
2021/04/04 01:05:50;;;;;;;2.90;1.35;;;22.40;74.70;;;;;;5023221;28;20017;-66
2021/04/04 01:08:16;;;;;;;4.63;1.65;;;22.40;74.80;;;;;;5025873;28;20029;-67
2021/04/04 01:10:48;;;;;;;1.70;1.13;;;22.40;74.90;;;;;;5028154;28;20037;-66
2021/04/04 01:13:20;;;;;;;0.98;0.90;;;22.40;75.00;;;;;;5026756;28;20553;-66
2021/04/04 01:15:57;;;;;;;1.08;0.90;;;22.40;75.20;;;;;;5025425;28;20082;-67
2021/04/04 01:18:41;;;;;;;1.42;1.00;;;22.40;75.30;;;;;;5025343;28;20033;-65
2021/04/04 01:21:17;;;;;;;0.70;0.70;;;22.40;75.40;;;;;;5025045;28;20552;-65
2021/04/04 01:24:28;;;;;;;1.55;1.10;;;22.40;75.50;;;;;;5025025;28;20037;-66
2021/04/04 01:27:15;;;;;;;1.05;0.80;;;22.40;75.70;;;;;;5026473;28;20061;-65
2021/04/04 01:29:43;;;;;;;1.63;0.88;;;22.40;75.70;;;;;;5022157;28;20030;-69
2021/04/04 01:32:10;;;;;;;0.70;0.70;;;22.40;75.70;;;;;;5023591;28;20042;-66
2021/04/04 01:34:38;;;;;;;0.77;0.70;;;22.40;75.80;;;;;;5023916;28;20045;-66
2021/04/04 01:37:09;;;;;;;0.80;0.80;;;22.40;75.90;;;;;;5023360;28;20481;-66
2021/04/04 01:39:47;;;;;;;2.20;0.95;;;22.40;75.90;;;;;;5022510;28;20022;-67
2021/04/04 01:42:15;;;;;;;0.77;0.60;;;22.40;75.90;;;;;;5025717;28;20421;-67
2021/04/04 01:44:46;;;;;;;1.92;0.95;;;22.30;76.50;;;;;;5028076;28;20034;-66
2021/04/04 01:47:14;;;;;;;1.13;0.70;;;22.40;75.80;;;;;;5027029;28;20025;-65
2021/04/04 01:49:43;;;;;;;5.68;1.40;;;22.30;75.70;;;;;;5025308;28;20033;-66
2021/04/04 01:52:11;;;;;;;1.20;0.73;;;22.30;75.70;;;;;;5022675;28;20025;-64
2021/04/04 01:54:38;;;;;;;1.45;1.33;;;22.30;75.60;;;;;;5026042;28;20523;-68
2021/04/04 01:57:06;;;;;;;1.48;1.38;;;22.30;75.60;;;;;;5028491;28;20024;-66
2021/04/04 01:59:33;;;;;;;3.70;0.88;;;22.30;75.60;;;;;;5027560;28;20358;-67
2021/04/04 02:02:00;;;;;;;0.93;0.82;;;22.30;75.50;;;;;;5025311;28;20075;-66
2021/04/04 02:04:27;;;;;;;2.90;1.08;;;22.30;75.40;;;;;;5026002;28;20028;-66
2021/04/04 02:06:56;;;;;;;2.97;1.10;;;22.30;75.40;;;;;;5025941;28;20065;-66
2021/04/04 02:09:24;;;;;;;1.05;0.82;;;22.30;75.40;;;;;;5021595;28;20052;-67
2021/04/04 02:11:51;;;;;;;1.70;1.10;;;22.30;75.40;;;;;;5021434;28;20036;-66
2021/04/04 02:14:22;;;;;;;0.80;0.80;;;22.30;75.40;;;;;;5023192;28;20382;-66
2021/04/04 02:16:54;;;;;;;1.60;0.88;;;22.30;75.40;;;;;;5018344;28;20021;-66
2021/04/04 02:19:24;;;;;;;1.35;0.88;;;22.30;75.40;;;;;;5021877;28;20029;-66
2021/04/04 02:21:53;;;;;;;1.35;1.15;;;22.30;75.50;;;;;;5022826;28;20224;-66
2021/04/04 02:24:21;;;;;;;1.20;1.10;;;22.30;75.50;;;;;;5023802;28;20388;-66
2021/04/04 02:26:49;;;;;;;1.85;0.80;;;22.30;75.50;;;;;;5025561;28;20025;-66
2021/04/04 02:29:16;;;;;;;1.67;0.60;;;22.30;75.50;;;;;;5019397;28;20633;-66
2021/04/04 02:31:59;;;;;;;1.35;0.88;;;22.30;75.50;;;;;;5022173;28;20033;-66
2021/04/04 02:34:34;;;;;;;2.85;1.60;;;22.30;75.50;;;;;;5024495;28;20037;-65
2021/04/04 02:37:05;;;;;;;4.35;3.92;;;22.30;75.70;;;;;;5024464;28;20476;-68
2021/04/04 02:39:39;;;;;;;5.25;4.75;;;22.30;75.80;;;;;;5037362;28;20370;-67
2021/04/04 02:42:06;;;;;;;3.75;3.30;;;22.30;75.90;;;;;;5023924;28;20155;-67
2021/04/04 02:44:35;;;;;;;2.85;2.60;;;22.30;75.90;;;;;;5029916;28;20477;-65
2021/04/04 02:47:09;;;;;;;3.88;2.35;;;22.30;75.90;;;;;;5024165;28;20191;-66
2021/04/04 02:49:37;;;;;;;2.20;1.45;;;22.30;76.20;;;;;;5025478;28;20112;-69
2021/04/04 02:52:07;;;;;;;1.15;1.05;;;22.30;76.00;;;;;;5024826;28;20100;-68
2021/04/04 02:54:37;;;;;;;2.40;1.30;;;22.30;76.00;;;;;;5026468;28;20041;-65
2021/04/04 02:57:06;;;;;;;1.02;0.80;;;22.30;76.10;;;;;;5024258;28;20018;-65
2021/04/04 02:59:45;;;;;;;2.35;1.10;;;22.30;76.10;;;;;;5025219;28;20040;-66
2021/04/04 03:02:15;;;;;;;1.55;0.90;;;22.30;76.10;;;;;;5023141;28;20100;-66
2021/04/04 03:04:44;;;;;;;3.25;0.60;;;22.30;76.20;;;;;;5024508;28;20029;-66
2021/04/04 03:07:16;;;;;;;1.30;0.70;;;22.30;76.30;;;;;;5028723;28;20117;-66
2021/04/04 03:09:49;;;;;;;2.85;0.75;;;22.30;76.30;;;;;;5029220;28;20107;-67
2021/04/04 03:12:16;;;;;;;2.25;0.70;;;22.30;76.40;;;;;;5029036;28;20163;-67
2021/04/04 03:14:44;;;;;;;2.20;0.80;;;22.30;76.40;;;;;;5027691;28;20120;-67
2021/04/04 03:17:12;;;;;;;1.13;0.60;;;22.30;76.50;;;;;;5024853;28;20017;-69
2021/04/04 03:19:41;;;;;;;0.73;0.50;;;22.30;76.50;;;;;;5028216;28;20025;-67
2021/04/04 03:22:09;;;;;;;0.73;0.60;;;22.30;76.60;;;;;;5022178;28;20022;-68
2021/04/04 03:24:37;;;;;;;0.82;0.57;;;22.30;76.60;;;;;;5024482;28;20037;-66
2021/04/04 03:27:05;;;;;;;0.50;0.50;;;22.30;76.70;;;;;;5024022;28;20029;-70
2021/04/04 03:29:32;;;;;;;0.60;0.60;;;22.30;76.70;;;;;;5027827;28;20380;-66
2021/04/04 03:32:00;;;;;;;1.27;0.68;;;22.30;76.70;;;;;;5021337;28;20061;-67
2021/04/04 03:34:27;;;;;;;4.97;4.40;;;22.30;76.80;;;;;;5026125;28;20587;-68
2021/04/04 03:36:55;;;;;;;8.65;7.80;;;22.30;76.90;;;;;;5027724;28;20121;-66
2021/04/04 03:39:27;;;;;;;6.65;5.90;;;22.30;77.00;;;;;;5024047;28;20024;-66
2021/04/04 03:41:56;;;;;;;5.35;4.90;;;22.30;77.00;;;;;;5022419;28;20026;-68
2021/04/04 03:44:26;;;;;;;4.53;3.33;;;22.30;77.10;;;;;;5027523;28;20024;-67
2021/04/04 03:46:54;;;;;;;2.65;2.45;;;22.30;77.10;;;;;;5027565;28;20354;-67
2021/04/04 03:49:23;;;;;;;2.13;1.70;;;22.20;77.10;;;;;;5026945;28;20032;-68
2021/04/04 03:51:56;;;;;;;1.38;1.27;;;22.20;77.10;;;;;;5019820;28;20021;-68
2021/04/04 03:54:25;;;;;;;3.90;3.45;;;22.20;77.10;;;;;;5031058;28;20543;-67
2021/04/04 03:56:54;;;;;;;8.05;7.25;;;22.20;77.10;;;;;;5024878;28;20029;-66
2021/04/04 03:59:23;;;;;;;9.43;8.50;;;22.20;77.10;;;;;;5027845;28;20017;-66
2021/04/04 04:01:51;;;;;;;7.25;6.03;;;22.30;77.20;;;;;;5025301;28;20108;-66
2021/04/04 04:04:20;;;;;;;4.40;4.00;;;22.20;77.10;;;;;;5027001;28;20040;-65
2021/04/04 04:06:48;;;;;;;3.63;3.00;;;22.20;77.20;;;;;;5026929;28;20030;-66
2021/04/04 04:09:19;;;;;;;2.28;2.08;;;22.20;77.20;;;;;;5031023;28;20018;-68
2021/04/04 04:11:48;;;;;;;2.88;1.60;;;22.20;77.20;;;;;;5027270;28;20526;-70
2021/04/04 04:14:22;;;;;;;1.48;1.38;;;22.20;77.20;;;;;;5025729;28;20048;-67
2021/04/04 04:16:49;;;;;;;1.98;1.25;;;22.20;77.20;;;;;;5025214;28;20026;-65
2021/04/04 04:19:17;;;;;;;1.23;1.10;;;22.20;77.30;;;;;;5025698;28;20037;-67
2021/04/04 04:21:44;;;;;;;1.10;0.95;;;22.20;77.30;;;;;;5025932;28;20014;-66
2021/04/04 04:24:14;;;;;;;1.27;1.15;;;22.20;77.30;;;;;;5028414;28;20084;-66
2021/04/04 04:27:20;;;;;;;4.18;3.78;;;22.20;77.30;;;;;;5027361;28;20036;-70
2021/04/04 04:30:26;;;;;;;5.13;4.47;;;22.20;77.30;;;;;;5030367;28;20428;-67
2021/04/04 04:33:32;;;;;;;3.47;3.10;;;22.20;77.30;;;;;;5030503;28;20461;-68
2021/04/04 04:36:38;;;;;;;3.22;2.83;;;22.20;77.20;;;;;;5028945;28;20072;-67
2021/04/04 04:39:44;;;;;;;1.95;1.73;;;22.20;77.20;;;;;;5027567;28;20457;-67
2021/04/04 04:42:51;;;;;;;2.45;2.05;;;22.20;77.20;;;;;;5025825;28;20029;-69
2021/04/04 04:46:03;;;;;;;1.67;1.13;;;22.20;77.10;;;;;;5026613;28;20026;-68
2021/04/04 04:49:09;;;;;;;1.40;1.30;;;22.20;77.20;;;;;;5027751;28;20025;-69
2021/04/04 04:52:15;;;;;;;2.30;1.40;;;22.20;77.20;;;;;;5025151;28;20420;-69
2021/04/04 04:55:06;;;;;;;1.15;1.05;;;22.20;77.30;;;;;;5026929;28;20118;-68
2021/04/04 04:57:32;;;;;;;1.48;1.38;;;22.20;77.30;;;;;;5022601;28;20041;-67
2021/04/04 05:00:01;;;;;;;9.32;8.43;;;22.20;77.30;;;;;;5020378;28;20519;-67
2021/04/04 05:02:28;;;;;;;13.93;12.45;;;22.20;77.30;;;;;;5021320;28;20026;-66
2021/04/04 05:04:54;;;;;;;11.18;10.05;;;22.20;77.40;;;;;;5018155;28;20018;-68
2021/04/04 05:07:21;;;;;;;7.70;6.95;;;22.10;77.30;;;;;;5022646;28;20388;-66
2021/04/04 05:09:49;;;;;;;6.22;5.63;;;22.10;77.30;;;;;;5019123;28;20024;-66
2021/04/04 05:12:22;;;;;;;5.20;4.57;;;22.20;77.30;;;;;;5024692;28;20052;-66
2021/04/04 05:14:48;;;;;;;3.97;2.90;;;22.20;77.40;;;;;;5022465;28;20026;-68
2021/04/04 05:17:16;;;;;;;3.13;2.83;;;22.20;77.40;;;;;;5021622;28;20417;-71
2021/04/04 05:19:42;;;;;;;2.38;2.17;;;22.20;77.30;;;;;;5017503;28;20033;-65
2021/04/04 05:22:09;;;;;;;3.70;2.22;;;22.20;77.40;;;;;;5019408;28;20045;-68
2021/04/04 05:24:37;;;;;;;3.38;2.33;;;22.10;77.30;;;;;;5021836;28;20060;-68
2021/04/04 05:27:04;;;;;;;6.60;3.95;;;22.20;77.40;;;;;;5022301;28;20466;-68
2021/04/04 05:29:31;;;;;;;6.57;3.35;;;22.20;77.40;;;;;;5022548;28;20378;-66
2021/04/04 05:31:58;;;;;;;10.00;5.20;;;22.20;77.30;;;;;;5020491;28;20046;-66
2021/04/04 05:34:29;;;;;;;8.95;4.63;;;22.10;77.20;;;;;;5023550;28;20033;-66
2021/04/04 05:37:02;;;;;;;8.90;5.90;;;22.10;77.20;;;;;;5022869;28;20048;-66
2021/04/04 05:39:30;;;;;;;7.13;5.22;;;22.10;77.10;;;;;;5027126;28;20017;-68
2021/04/04 05:42:00;;;;;;;9.40;5.97;;;22.10;77.00;;;;;;5020827;28;20025;-69
2021/04/04 05:44:31;;;;;;;9.63;5.53;;;22.10;76.90;;;;;;5023560;28;20726;-68
2021/04/04 05:47:26;;;;;;;7.45;4.28;;;22.10;76.90;;;;;;5025579;28;20020;-70
2021/04/04 05:49:58;;;;;;;9.60;7.25;;;22.10;76.80;;;;;;5022586;28;20381;-71
2021/04/04 05:53:03;;;;;;;17.75;12.90;;;22.10;76.80;;;;;;5025589;28;20105;-67
2021/04/04 05:55:48;;;;;;;29.42;25.83;;;22.10;76.70;;;;;;5019778;28;20037;-66
2021/04/04 05:58:49;;;;;;;25.70;20.55;;;22.10;76.70;;;;;;5018920;28;20115;-68
2021/04/04 06:01:36;;;;;;;15.73;12.70;;;22.10;76.60;;;;;;5021237;28;20120;-69
2021/04/04 06:04:30;;;;;;;13.70;9.93;;;22.10;76.60;;;;;;5015690;28;20037;-77
2021/04/04 06:07:37;;;;;;;11.82;10.32;;;22.20;76.60;;;;;;5021725;28;20469;-67
2021/04/04 06:10:05;;;;;;;15.27;10.48;;;22.20;76.50;;;;;;5020912;28;20031;-68
2021/04/04 06:12:53;;;;;;;8.82;7.93;;;22.20;76.50;;;;;;5023546;28;20044;-69
2021/04/04 06:15:57;;;;;;;11.98;7.90;;;22.20;76.50;;;;;;5022437;28;20041;-67
2021/04/04 06:18:47;;;;;;;11.05;7.88;;;22.20;76.50;;;;;;5022196;28;20120;-69
2021/04/04 06:21:27;;;;;;;9.18;7.07;;;22.10;76.40;;;;;;5024799;28;20022;-68
2021/04/04 06:23:58;;;;;;;6.50;5.97;;;22.10;76.40;;;;;;5020833;28;20407;-69
2021/04/04 06:26:36;;;;;;;8.15;6.20;;;22.10;76.40;;;;;;5023761;28;20026;-69
2021/04/04 06:29:19;;;;;;;7.38;5.80;;;22.20;76.50;;;;;;5031049;28;20096;-68
2021/04/04 06:31:59;;;;;;;6.28;5.50;;;22.20;76.50;;;;;;5021072;28;20057;-70
2021/04/04 06:34:51;;;;;;;8.43;6.28;;;22.20;76.50;;;;;;5022554;28;20036;-68
2021/04/04 06:37:54;;;;;;;9.73;6.10;;;22.20;76.50;;;;;;5019963;28;20026;-69
2021/04/04 06:40:58;;;;;;;9.05;6.25;;;22.20;76.50;;;;;;5022869;28;20040;-67
2021/04/04 06:43:58;;;;;;;10.02;7.07;;;22.30;76.50;;;;;;5023717;28;20017;-70
2021/04/04 06:46:49;;;;;;;30.45;22.65;;;22.30;76.50;;;;;;5023052;28;20028;-67
2021/04/04 06:49:53;;;;;;;40.97;27.65;;;22.30;76.50;;;;;;5025514;28;20379;-68
2021/04/04 06:52:59;;;;;;;36.53;23.10;;;22.30;76.50;;;;;;5024232;28;20041;-72
2021/04/04 06:55:38;;;;;;;23.52;15.45;;;22.30;76.50;;;;;;5015543;28;20091;-70
2021/04/04 06:58:19;;;;;;;19.77;12.93;;;22.30;76.50;;;;;;5025245;28;20041;-71
2021/04/04 07:01:11;;;;;;;15.52;11.18;;;22.30;76.60;;;;;;5024995;28;20029;-70
2021/04/04 07:03:45;;;;;;;14.07;10.55;;;22.30;76.60;;;;;;5023652;28;20116;-70
2021/04/04 07:06:24;;;;;;;10.25;8.75;;;22.30;76.60;;;;;;5025722;28;20010;-70
2021/04/04 07:09:20;;;;;;;11.57;9.23;;;22.30;76.70;;;;;;5023903;28;20484;-70
2021/04/04 07:12:01;;;;;;;10.55;8.43;;;22.40;76.70;;;;;;5023275;28;20026;-69
2021/04/04 07:14:45;;;;;;;9.15;8.25;;;22.40;76.70;;;;;;5020163;28;20128;-69
2021/04/04 07:17:42;;;;;;;7.75;6.95;;;22.40;76.70;;;;;;5023634;28;20508;-68
2021/04/04 07:20:31;;;;;;;12.18;8.18;;;22.40;76.70;;;;;;5022832;28;20521;-68
2021/04/04 07:23:28;;;;;;;8.93;8.02;;;22.40;76.70;;;;;;5025528;28;20132;-67
2021/04/04 07:26:19;;;;;;;8.00;7.20;;;22.50;76.80;;;;;;5025480;28;20022;-68
2021/04/04 07:29:03;;;;;;;10.23;6.78;;;22.50;76.70;;;;;;5029713;28;20503;-68
2021/04/04 07:31:37;;;;;;;8.50;7.07;;;22.50;76.80;;;;;;5021299;28;20029;-69
2021/04/04 07:34:19;;;;;;;9.68;7.53;;;22.50;76.80;;;;;;5024804;28;20049;-71
2021/04/04 07:37:03;;;;;;;11.60;7.97;;;22.50;76.70;;;;;;5018922;28;20029;-68
2021/04/04 07:40:02;;;;;;;9.02;7.85;;;22.50;76.80;;;;;;5027011;28;20033;-68
2021/04/04 07:42:45;;;;;;;9.70;7.57;;;22.50;76.80;;;;;;5027567;28;20037;-69
2021/04/04 07:45:35;;;;;;;10.75;7.88;;;22.50;76.80;;;;;;5018081;28;20086;-67
2021/04/04 07:48:13;;;;;;;8.85;7.20;;;22.50;76.80;;;;;;5025213;28;20505;-67
2021/04/04 07:50:39;;;;;;;10.05;7.13;;;22.50;76.80;;;;;;5020770;28;20037;-68
2021/04/04 07:53:38;;;;;;;7.70;6.95;;;22.50;76.80;;;;;;5025698;28;20414;-67
2021/04/04 07:56:23;;;;;;;9.57;7.03;;;22.50;76.80;;;;;;5022265;28;20141;-68
2021/04/04 07:59:06;;;;;;;12.88;7.70;;;22.50;76.90;;;;;;5026649;28;20025;-68
2021/04/04 08:01:59;;;;;;;9.30;7.47;;;22.50;76.80;;;;;;5027088;28;20041;-67
2021/04/04 08:04:49;;;;;;;8.82;7.20;;;22.50;76.80;;;;;;5030332;28;20036;-67
2021/04/04 08:07:20;;;;;;;8.88;6.55;;;22.60;76.90;;;;;;5023124;28;20101;-68
2021/04/04 08:10:09;;;;;;;7.82;7.03;;;22.60;76.80;;;;;;5030740;28;20163;-67
2021/04/04 08:13:11;;;;;;;10.02;7.45;;;22.60;76.70;;;;;;5021142;28;20558;-67
2021/04/04 08:15:45;;;;;;;9.55;6.85;;;22.60;76.70;;;;;;5024452;28;20044;-67
2021/04/04 08:18:12;;;;;;;8.73;6.93;;;22.60;76.60;;;;;;5029312;28;20032;-67
2021/04/04 08:20:46;;;;;;;7.95;6.93;;;22.60;76.60;;;;;;5031665;28;20017;-68
2021/04/04 08:23:44;;;;;;;7.40;6.68;;;22.60;76.60;;;;;;5025312;28;20068;-68
2021/04/04 08:26:23;;;;;;;8.50;6.03;;;22.60;76.60;;;;;;5030038;28;20041;-67
2021/04/04 08:28:59;;;;;;;9.40;6.97;;;22.60;76.50;;;;;;5028129;28;20065;-68
2021/04/04 08:31:38;;;;;;;11.55;7.50;;;22.70;76.60;;;;;;5022857;28;20037;-67
2021/04/04 08:34:36;;;;;;;11.75;8.98;;;22.60;76.50;;;;;;5028109;28;20034;-67
2021/04/04 08:37:19;;;;;;;10.23;8.65;;;22.70;76.50;;;;;;5025170;28;20021;-67
2021/04/04 08:39:55;;;;;;;11.27;9.20;;;22.70;76.50;;;;;;5028740;28;20479;-68
2021/04/04 08:42:22;;;;;;;11.07;8.70;;;22.70;76.40;;;;;;5027111;28;20052;-67
2021/04/04 08:44:58;;;;;;;10.65;8.65;;;22.70;76.40;;;;;;5021832;28;20052;-67
2021/04/04 08:47:31;;;;;;;10.70;9.60;;;22.70;76.30;;;;;;5032645;28;20024;-67
2021/04/04 08:50:05;;;;;;;10.77;8.60;;;22.70;76.30;;;;;;5025955;28;20067;-67
2021/04/04 08:52:51;;;;;;;11.23;9.82;;;22.70;76.30;;;;;;5028249;28;20029;-68
2021/04/04 08:55:25;;;;;;;11.23;9.50;;;22.80;76.30;;;;;;5019562;28;20140;-67
2021/04/04 08:57:53;;;;;;;11.07;9.68;;;22.80;76.30;;;;;;5028593;28;20018;-68
2021/04/04 09:00:23;;;;;;;11.70;8.52;;;22.80;76.80;;;;;;5028330;28;20519;-67
2021/04/04 09:03:11;;;;;;;10.02;9.00;;;22.80;76.10;;;;;;5029065;28;20017;-67
2021/04/04 09:05:38;;;;;;;9.52;8.45;;;22.90;76.10;;;;;;5026920;28;20018;-68
2021/04/04 09:08:05;;;;;;;11.38;8.43;;;22.90;76.00;;;;;;5019586;28;20052;-70
2021/04/04 09:10:38;;;;;;;9.70;8.70;;;22.90;75.90;;;;;;5027400;28;20034;-68
2021/04/04 09:13:13;;;;;;;8.95;8.00;;;23.00;75.80;;;;;;5024960;28;20029;-67
2021/04/04 09:16:02;;;;;;;9.38;7.00;;;23.00;75.70;;;;;;5026534;28;20033;-66
2021/04/04 09:18:30;;;;;;;8.63;7.30;;;23.10;75.70;;;;;;5031307;28;20064;-69
2021/04/04 09:21:08;;;;;;;10.18;8.02;;;23.20;75.50;;;;;;5024542;28;20145;-67
2021/04/04 09:23:36;;;;;;;11.18;8.07;;;23.30;75.40;;;;;;5024661;28;20064;-68
2021/04/04 09:26:07;;;;;;;13.90;8.07;;;23.30;75.50;;;;;;5025989;28;20104;-68
2021/04/04 09:28:39;;;;;;;14.60;7.32;;;23.30;75.40;;;;;;5025451;28;20064;-67
2021/04/04 09:31:27;;;;;;;8.77;6.88;;;23.40;75.30;;;;;;5026422;28;20026;-68
2021/04/04 09:34:12;;;;;;;18.85;7.10;;;23.40;75.10;;;;;;5024156;28;20488;-68
2021/04/04 09:36:59;;;;;;;10.57;7.43;;;23.40;75.00;;;;;;5024870;28;20057;-70
2021/04/04 09:39:30;;;;;;;9.60;6.22;;;23.40;74.80;;;;;;5026419;28;20112;-68
2021/04/04 09:41:59;;;;;;;8.82;5.82;;;23.50;74.80;;;;;;5029104;28;20013;-69
2021/04/04 09:44:33;;;;;;;9.98;6.25;;;23.50;74.70;;;;;;5024717;28;20018;-69
2021/04/04 09:47:02;;;;;;;7.47;6.65;;;23.60;74.70;;;;;;5038589;28;20437;-68
2021/04/04 09:49:34;;;;;;;6.90;5.95;;;23.60;74.50;;;;;;5029978;28;20485;-70
2021/04/04 09:52:13;;;;;;;9.63;6.75;;;23.60;74.20;;;;;;5028406;28;20017;-70
2021/04/04 09:55:10;;;;;;;8.07;6.78;;;23.60;74.10;;;;;;5023675;28;20476;-67
2021/04/04 09:57:51;;;;;;;9.02;6.65;;;23.60;74.00;;;;;;5027909;28;20082;-67
2021/04/04 10:00:43;;;;;;;7.13;5.97;;;23.60;74.00;;;;;;5022615;28;20503;-67
2021/04/04 10:03:11;;;;;;;7.90;7.10;;;23.60;73.90;;;;;;5021470;28;20025;-67
2021/04/04 10:05:43;;;;;;;8.48;7.30;;;23.70;73.80;;;;;;5026164;28;20022;-69
2021/04/04 10:08:11;;;;;;;8.40;7.18;;;23.70;73.80;;;;;;5022116;28;20397;-68
2021/04/04 10:10:39;;;;;;;7.38;6.68;;;23.70;73.80;;;;;;5026132;28;20108;-68
2021/04/04 10:13:06;;;;;;;7.55;6.90;;;23.70;73.70;;;;;;5024653;28;20026;-67
2021/04/04 10:15:41;;;;;;;8.48;7.15;;;23.70;73.70;;;;;;5025660;28;20392;-68
2021/04/04 10:18:08;;;;;;;7.63;6.53;;;23.70;73.60;;;;;;5026443;28;20022;-67
2021/04/04 10:20:45;;;;;;;9.73;6.38;;;23.80;74.20;;;;;;5025860;28;20428;-70
2021/04/04 10:23:12;;;;;;;6.82;5.80;;;23.70;73.40;;;;;;5027042;28;20056;-68
2021/04/04 10:25:55;;;;;;;7.93;6.25;;;23.70;73.40;;;;;;5021212;28;20040;-67
2021/04/04 10:28:22;;;;;;;6.82;5.47;;;23.80;73.60;;;;;;5029846;28;20495;-66
2021/04/04 10:30:56;;;;;;;5.90;4.43;;;23.80;73.50;;;;;;5022913;28;20034;-67
2021/04/04 10:33:27;;;;;;;4.95;4.43;;;23.80;73.50;;;;;;5025762;28;20049;-68
2021/04/04 10:35:56;;;;;;;5.50;4.10;;;23.80;73.60;;;;;;5021090;28;20046;-69
2021/04/04 10:38:25;;;;;;;5.38;3.85;;;23.90;73.60;;;;;;5028186;28;20028;-68
2021/04/04 10:40:56;;;;;;;4.80;4.30;;;23.90;73.60;;;;;;5023914;28;20098;-69
2021/04/04 10:43:47;;;;;;;4.95;4.15;;;23.90;73.50;;;;;;5023488;28;20042;-67
2021/04/04 10:46:15;;;;;;;5.90;5.30;;;24.00;73.40;;;;;;5024698;28;20074;-67
2021/04/04 10:48:47;;;;;;;7.45;4.68;;;24.00;73.20;;;;;;5025746;28;20018;-67
2021/04/04 10:51:16;;;;;;;5.13;4.72;;;24.10;73.00;;;;;;5019870;28;20021;-67
2021/04/04 10:53:45;;;;;;;8.45;4.55;;;24.10;73.00;;;;;;5024578;28;20034;-67
2021/04/04 10:56:13;;;;;;;4.20;3.80;;;24.10;72.90;;;;;;5027502;28;20022;-67
2021/04/04 10:58:41;;;;;;;6.75;4.57;;;24.20;72.90;;;;;;5028539;28;20014;-67
2021/04/04 11:01:12;;;;;;;6.85;5.47;;;24.20;72.70;;;;;;5030638;28;20018;-67
2021/04/04 11:03:43;;;;;;;5.50;4.75;;;24.20;72.50;;;;;;5021745;28;20034;-68
2021/04/04 11:06:12;;;;;;;8.23;5.05;;;24.20;72.60;;;;;;5024495;28;20029;-67
2021/04/04 11:08:42;;;;;;;7.43;4.95;;;24.20;72.50;;;;;;5027768;28;20014;-67
2021/04/04 11:11:14;;;;;;;6.07;3.80;;;24.20;72.40;;;;;;5022408;28;20072;-67
2021/04/04 11:13:44;;;;;;;4.80;3.13;;;24.20;72.40;;;;;;5023621;28;20440;-67
2021/04/04 11:16:12;;;;;;;4.70;2.40;;;24.20;72.50;;;;;;5029619;28;20026;-67
2021/04/04 11:18:43;;;;;;;4.95;2.80;;;24.20;72.70;;;;;;5025516;28;20105;-69
2021/04/04 11:21:20;;;;;;;1.67;1.58;;;24.10;73.00;;;;;;5026839;28;20418;-67
2021/04/04 11:23:48;;;;;;;3.35;1.95;;;24.10;73.20;;;;;;5023365;28;20033;-67
2021/04/04 11:26:35;;;;;;;4.88;2.17;;;24.10;73.40;;;;;;5024659;28;20026;-67
2021/04/04 11:29:12;;;;;;;3.15;1.77;;;24.10;73.50;;;;;;5032297;28;20029;-66
2021/04/04 11:31:41;;;;;;;4.72;1.80;;;24.00;73.60;;;;;;5026689;28;20080;-69
2021/04/04 11:34:34;;;;;;;2.42;1.80;;;24.00;74.30;;;;;;5032801;28;20151;-69
2021/04/04 11:37:04;;;;;;;2.67;1.45;;;24.00;73.60;;;;;;5025393;28;20041;-67
2021/04/04 11:39:31;;;;;;;2.25;1.75;;;24.00;73.60;;;;;;5030801;28;20026;-67
2021/04/04 11:42:02;;;;;;;3.58;1.38;;;24.00;73.60;;;;;;5032900;28;20025;-67
2021/04/04 11:44:41;;;;;;;5.50;1.80;;;24.00;73.60;;;;;;5026527;28;20026;-66
2021/04/04 11:47:16;;;;;;;4.38;2.33;;;24.00;73.60;;;;;;5028365;28;20036;-66
2021/04/04 11:49:44;;;;;;;3.90;1.95;;;24.00;73.70;;;;;;5020611;28;20114;-68
2021/04/04 11:52:10;;;;;;;4.38;2.25;;;23.90;73.70;;;;;;5023118;28;20026;-67
2021/04/04 11:54:46;;;;;;;5.80;2.78;;;23.90;73.70;;;;;;5028377;28;20396;-68
2021/04/04 11:57:13;;;;;;;4.75;2.15;;;23.90;73.80;;;;;;5027883;28;20025;-66
2021/04/04 11:59:40;;;;;;;5.75;3.83;;;23.90;73.90;;;;;;5023493;28;20022;-66
2021/04/04 12:02:07;;;;;;;5.93;2.60;;;23.90;73.90;;;;;;5033032;28;20019;-68
2021/04/04 12:04:37;;;;;;;7.78;3.08;;;23.90;73.90;;;;;;5025994;28;20379;-67
2021/04/04 12:07:10;;;;;;;5.63;2.78;;;23.80;73.80;;;;;;5019730;28;20105;-69
2021/04/04 12:09:39;;;;;;;3.65;2.88;;;23.80;73.80;;;;;;5025062;28;20079;-66
2021/04/04 12:12:07;;;;;;;3.55;2.92;;;23.90;73.70;;;;;;5027394;28;20018;-66
2021/04/04 12:14:52;;;;;;;7.20;4.53;;;23.90;73.70;;;;;;5032667;28;20041;-69
2021/04/04 12:17:21;;;;;;;5.47;4.90;;;23.90;73.80;;;;;;5030806;28;20519;-69
2021/04/04 12:19:48;;;;;;;7.53;5.47;;;23.90;73.60;;;;;;5028855;28;20168;-68
2021/04/04 12:22:17;;;;;;;4.72;3.90;;;23.90;73.70;;;;;;5027890;28;20034;-67
2021/04/04 12:24:51;;;;;;;7.53;4.30;;;23.90;73.70;;;;;;5028389;28;20029;-68
2021/04/04 12:27:23;;;;;;;6.00;3.83;;;24.00;73.50;;;;;;5026443;28;20473;-66
2021/04/04 12:29:52;;;;;;;3.53;3.22;;;24.00;73.40;;;;;;5022873;28;20026;-68
2021/04/04 12:32:20;;;;;;;5.60;2.85;;;24.10;73.30;;;;;;5028597;28;20642;-69
2021/04/04 12:34:48;;;;;;;2.50;2.30;;;24.10;73.00;;;;;;5024739;28;20033;-66
2021/04/04 12:37:17;;;;;;;5.80;4.05;;;24.20;72.80;;;;;;5026405;28;20484;-68
2021/04/04 12:39:44;;;;;;;3.63;2.45;;;24.20;72.60;;;;;;5027475;28;20128;-70
2021/04/04 12:42:13;;;;;;;5.25;2.00;;;24.20;72.40;;;;;;5030670;28;20009;-71
2021/04/04 12:44:42;;;;;;;2.50;1.58;;;24.20;72.40;;;;;;5026604;28;20041;-69
2021/04/04 12:47:13;;;;;;;1.67;1.35;;;24.10;72.40;;;;;;5027024;28;20475;-71
2021/04/04 12:50:22;;;;;;;13.40;12.30;;;24.10;72.40;;;;;;5024696;28;20026;-71
2021/04/04 12:53:31;;;;;;;8.00;4.88;;;24.10;72.50;;;;;;5029100;28;20026;-70
2021/04/04 12:56:55;;;;;;;6.13;5.63;;;24.00;72.40;;;;;;5023783;28;20067;-70
2021/04/04 13:00:01;;;;;;;6.28;4.57;;;24.00;72.40;;;;;;5024051;28;20017;-70
2021/04/04 13:02:47;;;;;;;;;;;24.00;72.40;;;;;;5023231;28;20037;-71
2021/04/04 13:05:53;;;;;;;6.95;5.13;;;24.00;72.50;;;;;;5025233;28;20586;-71
2021/04/04 13:08:32;;;;;;;4.32;3.30;;;24.00;72.50;;;;;;5020720;28;20048;-70
2021/04/04 13:11:02;;;;;;;6.25;2.90;;;24.00;72.50;;;;;;5027295;28;20065;-72
2021/04/04 13:13:40;;;;;;;5.32;3.50;;;24.00;72.70;;;;;;5024369;28;20028;-69
2021/04/04 13:16:12;;;;;;;2.80;2.10;;;24.00;72.70;;;;;;5023809;28;20470;-70
2021/04/04 13:18:41;;;;;;;3.33;2.40;;;24.00;72.80;;;;;;5022817;28;20120;-71
2021/04/04 13:21:28;;;;;;;5.18;2.00;;;24.00;72.80;;;;;;5027112;28;20067;-71
2021/04/04 13:24:09;;;;;;;4.72;2.10;;;24.00;72.80;;;;;;5024237;28;20130;-69
2021/04/04 13:26:37;;;;;;;53.03;47.67;;;24.10;72.70;;;;;;5024610;28;20036;-69
2021/04/04 13:29:05;;;;;;;24.80;21.95;;;24.20;72.40;;;;;;5027632;28;20022;-70
2021/04/04 13:31:34;;;;;;;6.25;5.55;;;24.30;72.10;;;;;;5021501;28;20026;-70